createdAt,value
2022-08-16T00:07:45.886Z,12.20
2022-08-16T00:10:42.298Z,15.77
2022-08-16T00:13:29.382Z,13.13
2022-08-16T00:17:06.372Z,13.02
2022-08-16T00:19:28.360Z,12.18
2022-08-16T00:22:15.932Z,13.10
2022-08-16T00:25:05.118Z,15.52
2022-08-16T00:27:53.092Z,14.02
2022-08-16T00:30:41.517Z,13.85
2022-08-16T00:33:29.407Z,14.30
2022-08-16T00:36:18.071Z,13.82
2022-08-16T00:39:05.715Z,13.60
2022-08-16T00:41:54.438Z,14.48
2022-08-16T00:44:51.414Z,14.15
2022-08-16T00:47:48.902Z,13.73
2022-08-16T00:55:37.746Z,14.52
2022-08-16T00:58:34.340Z,14.27
2022-08-16T01:01:23.146Z,13.80
2022-08-16T01:05:09.437Z,14.98
2022-08-16T01:13:18.807Z,17.38
2022-08-16T01:16:11.557Z,13.55
2022-08-16T01:19:02.561Z,15.70
2022-08-16T01:22:48.592Z,14.38
2022-08-16T01:26:00.312Z,14.45
2022-08-16T01:29:01.518Z,13.43
2022-08-16T01:31:49.123Z,15.30
2022-08-16T01:34:47.294Z,15.07
2022-08-16T01:43:09.551Z,14.65
2022-08-16T01:45:59.683Z,14.80
2022-08-16T01:49:14.527Z,14.90
2022-08-16T01:52:05.915Z,14.88
2022-08-16T01:55:21.677Z,13.30
2022-08-16T01:58:12.339Z,15.23
2022-08-16T02:00:59.516Z,15.13
2022-08-16T02:03:50.721Z,13.60
2022-08-16T02:06:45.963Z,12.93
2022-08-16T02:09:37.234Z,15.77
2022-08-16T02:12:50.155Z,15.38
2022-08-16T02:15:42.650Z,15.70
2022-08-16T02:18:32.241Z,14.88
2022-08-16T02:21:31.264Z,19.48
2022-08-16T02:24:31.787Z,13.77
2022-08-16T02:27:20.258Z,18.70
2022-08-16T02:30:12.227Z,13.32
2022-08-16T02:33:24.686Z,14.57
2022-08-16T02:36:47.299Z,13.93
2022-08-16T02:39:39.007Z,13.35
2022-08-16T02:42:28.852Z,14.70
2022-08-16T02:45:16.946Z,15.25
2022-08-16T02:48:28.944Z,15.15
2022-08-16T02:51:13.462Z,14.60
2022-08-16T02:59:21.271Z,14.65
2022-08-16T03:02:09.056Z,17.73
2022-08-16T03:04:57.454Z,16.80
2022-08-16T03:08:52.611Z,14.80
2022-08-16T03:17:02.022Z,14.05
2022-08-16T03:19:59.826Z,16.52
2022-08-16T03:22:51.926Z,14.75
2022-08-16T03:25:44.971Z,18.63
2022-08-16T03:34:01.042Z,18.02
2022-08-16T03:36:48.882Z,15.98
2022-08-16T03:39:42.989Z,14.77
2022-08-16T03:42:31.136Z,15.18
2022-08-16T03:45:18.931Z,14.35
2022-08-16T03:48:07.619Z,16.20
2022-08-16T03:50:59.743Z,15.07
2022-08-16T03:53:57.613Z,14.70
2022-08-16T03:56:58.107Z,15.75
2022-08-16T03:59:48.760Z,14.50
2022-08-16T04:02:40.203Z,13.88
2022-08-16T04:05:28.735Z,15.00
2022-08-16T04:08:23.831Z,17.10
2022-08-16T04:11:16.689Z,15.57
2022-08-16T04:14:32.800Z,16.60
2022-08-16T04:17:15.579Z,15.25
2022-08-16T04:20:07.516Z,17.30
2022-08-16T04:23:11.643Z,16.00
2022-08-16T04:26:03.030Z,15.25
2022-08-16T04:29:15.307Z,16.17
2022-08-16T04:32:02.425Z,15.80
2022-08-16T04:34:53.010Z,16.77
2022-08-16T04:37:41.178Z,17.23
2022-08-16T04:40:36.300Z,19.17
2022-08-16T04:43:26.150Z,19.90
2022-08-16T04:46:29.944Z,16.83
2022-08-16T04:49:24.671Z,17.98
2022-08-16T04:52:35.233Z,17.13
2022-08-16T04:55:31.907Z,18.42
2022-08-16T04:58:46.008Z,18.80
2022-08-16T05:01:55.258Z,18.60
2022-08-16T05:04:43.173Z,19.08
2022-08-16T05:11:58.155Z,20.10
2022-08-16T05:15:01.981Z,16.98
2022-08-16T05:17:58.624Z,18.60
2022-08-16T05:21:01.452Z,18.58
2022-08-16T05:24:00.399Z,21.45
2022-08-16T05:26:51.524Z,18.35
2022-08-16T05:30:00.985Z,18.55
2022-08-16T05:32:49.002Z,18.73
2022-08-16T05:35:37.547Z,21.25
2022-08-16T05:38:47.925Z,18.35
2022-08-16T05:41:44.808Z,19.50
2022-08-16T05:49:51.195Z,18.73
2022-08-16T05:52:39.217Z,18.00
2022-08-16T05:55:32.538Z,16.55
2022-08-16T05:58:33.192Z,16.33
2022-08-16T06:01:21.746Z,16.60
2022-08-16T06:04:35.139Z,16.08
2022-08-16T06:07:24.549Z,14.70
2022-08-16T06:10:33.118Z,14.93
2022-08-16T06:13:20.750Z,15.43
2022-08-16T06:16:09.504Z,15.63
2022-08-16T06:19:06.466Z,17.27
2022-08-16T06:21:56.788Z,16.70
2022-08-16T06:24:54.007Z,15.10
2022-08-16T06:27:57.394Z,14.68
2022-08-16T06:31:12.466Z,14.85
2022-08-16T06:34:02.729Z,15.05
2022-08-16T06:38:00.731Z,13.45
2022-08-16T06:40:49.825Z,13.57
2022-08-16T06:43:37.983Z,15.10
2022-08-16T06:46:34.103Z,12.27
2022-08-16T06:49:27.648Z,13.73
2022-08-16T06:52:59.893Z,12.93
2022-08-16T06:55:23.852Z,13.18
2022-08-16T06:58:22.709Z,12.90
2022-08-16T07:01:21.414Z,11.75
2022-08-16T07:04:12.406Z,12.90
2022-08-16T07:12:17.895Z,12.43
2022-08-16T07:15:08.601Z,12.00
2022-08-16T07:18:05.779Z,12.05
2022-08-16T07:20:54.229Z,12.27
2022-08-16T07:23:46.117Z,11.68
2022-08-16T07:26:34.450Z,12.05
2022-08-16T07:29:23.645Z,11.95
2022-08-16T07:32:12.999Z,11.88
2022-08-16T07:35:01.546Z,12.40
2022-08-16T07:37:49.733Z,10.98
2022-08-16T07:41:00.272Z,11.40
2022-08-16T07:43:48.759Z,10.98
2022-08-16T07:46:40.156Z,11.88
2022-08-16T07:49:53.191Z,12.02
2022-08-16T07:52:45.726Z,10.57
2022-08-16T07:55:45.818Z,11.27
2022-08-16T07:58:39.381Z,11.57
2022-08-16T08:02:48.738Z,12.23
2022-08-16T08:05:44.253Z,12.50
2022-08-16T08:08:50.261Z,12.40
2022-08-16T08:11:40.827Z,12.68
2022-08-16T08:14:52.669Z,12.90
2022-08-16T08:17:42.903Z,10.52
2022-08-16T08:20:34.187Z,13.35
2022-08-16T08:23:26.473Z,12.02
2022-08-16T08:26:17.620Z,12.13
2022-08-16T08:30:52.295Z,11.18
2022-08-16T08:33:27.426Z,13.38
2022-08-16T08:36:24.573Z,12.55
2022-08-16T08:39:24.558Z,13.45
2022-08-16T08:42:12.132Z,12.13
2022-08-16T08:44:59.510Z,12.20
2022-08-16T08:47:58.487Z,15.15
2022-08-16T08:50:49.970Z,14.57
2022-08-16T08:58:58.258Z,14.07
2022-08-16T09:01:57.602Z,15.35
2022-08-16T09:04:47.922Z,12.50
2022-08-16T09:08:01.021Z,12.63
2022-08-16T09:10:58.796Z,12.00
2022-08-16T09:15:04.716Z,11.23
2022-08-16T09:17:56.861Z,11.85
2022-08-16T09:20:58.655Z,11.50
2022-08-16T09:23:48.058Z,11.50
2022-08-16T09:26:45.433Z,10.95
2022-08-16T09:29:44.384Z,11.15
2022-08-16T09:32:33.943Z,11.20
2022-08-16T09:35:22.718Z,11.43
2022-08-16T09:38:12.237Z,10.68
2022-08-16T09:40:59.890Z,11.15
2022-08-16T09:43:58.482Z,12.23
2022-08-16T09:46:49.041Z,12.55
2022-08-16T09:49:37.547Z,11.07
2022-08-16T09:52:29.398Z,10.63
2022-08-16T09:55:17.123Z,10.20
2022-08-16T09:58:04.663Z,9.65
2022-08-16T10:00:53.506Z,10.98
2022-08-16T10:04:01.548Z,10.73
2022-08-16T10:06:50.111Z,9.38
2022-08-16T10:09:42.332Z,11.02
2022-08-16T10:12:55.869Z,9.52
2022-08-16T10:15:53.345Z,9.13
2022-08-16T10:19:01.317Z,8.98
2022-08-16T10:21:56.245Z,7.78
2022-08-16T10:24:55.772Z,9.95
2022-08-16T10:28:01.079Z,8.45
2022-08-16T10:30:56.545Z,8.63
2022-08-16T10:33:46.753Z,11.68
2022-08-16T10:36:39.429Z,6.78
2022-08-16T10:44:19.327Z,7.78
2022-08-16T10:47:07.410Z,7.20
2022-08-16T10:49:57.692Z,6.85
2022-08-16T10:52:45.056Z,6.90
2022-08-16T10:55:41.018Z,7.45
2022-08-16T10:58:33.958Z,7.25
2022-08-16T11:01:42.987Z,7.95
2022-08-16T11:07:54.974Z,6.70
2022-08-16T11:11:06.884Z,6.40
2022-08-16T11:14:05.836Z,7.75
2022-08-16T11:17:09.248Z,6.72
2022-08-16T11:20:41.665Z,6.72
2022-08-16T11:23:06.131Z,6.50
2022-08-16T11:26:10.514Z,10.43
2022-08-16T11:29:15.729Z,6.40
2022-08-16T11:32:05.515Z,8.10
2022-08-16T11:35:10.487Z,7.30
2022-08-16T11:38:05.964Z,6.28
2022-08-16T11:41:09.636Z,6.35
2022-08-16T11:43:56.975Z,6.93
2022-08-16T11:46:46.642Z,7.72
2022-08-16T11:49:35.626Z,6.97
2022-08-16T11:52:23.859Z,5.47
2022-08-16T11:55:15.074Z,5.78
2022-08-16T11:58:03.752Z,5.75
2022-08-16T12:00:53.298Z,5.45
2022-08-16T12:03:41.900Z,5.88
2022-08-16T12:06:33.707Z,5.25
2022-08-16T12:09:46.369Z,5.22
2022-08-16T12:12:35.800Z,9.35
2022-08-16T12:15:26.478Z,6.28
2022-08-16T12:18:20.454Z,5.80
2022-08-16T12:21:09.951Z,6.03
2022-08-16T12:23:58.701Z,5.47
2022-08-16T12:26:46.042Z,5.82
2022-08-16T12:29:33.607Z,5.55
2022-08-16T12:32:37.937Z,5.80
2022-08-16T12:35:30.720Z,5.85
2022-08-16T12:43:36.459Z,5.82
2022-08-16T12:47:36.775Z,6.65
2022-08-16T12:50:24.002Z,5.40
2022-08-16T12:53:21.771Z,5.82
2022-08-16T13:00:37.049Z,5.60
2022-08-16T13:03:28.571Z,12.77
2022-08-16T13:06:20.346Z,5.22
2022-08-16T13:09:23.403Z,4.90
2022-08-16T13:12:19.740Z,5.53
2022-08-16T13:15:22.299Z,5.40
2022-08-16T13:18:26.992Z,5.32
2022-08-16T13:21:14.981Z,5.72
2022-08-16T13:24:04.175Z,4.82
2022-08-16T13:26:53.331Z,6.07
2022-08-16T13:29:44.058Z,7.07
2022-08-16T13:32:39.357Z,6.50
2022-08-16T13:35:34.452Z,5.10
2022-08-16T13:38:25.099Z,4.95
2022-08-16T13:41:14.072Z,4.75
2022-08-16T13:44:56.632Z,5.10
2022-08-16T13:47:46.102Z,4.90
2022-08-16T13:50:51.364Z,6.00
2022-08-16T13:53:39.335Z,5.15
2022-08-16T13:56:34.439Z,4.47
2022-08-16T13:59:25.332Z,4.85
2022-08-16T14:02:16.851Z,5.55
2022-08-16T14:05:06.470Z,4.75
2022-08-16T14:07:55.197Z,4.32
2022-08-16T14:10:43.375Z,5.35
2022-08-16T14:13:30.354Z,56.10
2022-08-16T14:16:24.070Z,24.17
2022-08-16T14:19:22.457Z,7.13
2022-08-16T14:22:14.626Z,5.07
2022-08-16T14:25:23.504Z,7.43
2022-08-16T14:28:11.066Z,4.35
2022-08-16T14:31:00.180Z,4.13
2022-08-16T14:33:47.465Z,5.30
2022-08-16T14:36:34.918Z,3.47
2022-08-16T14:39:23.200Z,4.07
2022-08-16T14:42:13.839Z,3.83
2022-08-16T14:45:03.064Z,4.78
2022-08-16T14:47:50.375Z,4.18
2022-08-16T14:50:38.163Z,5.25
2022-08-16T14:53:26.610Z,5.35
2022-08-16T14:56:17.615Z,4.47
2022-08-16T14:59:22.977Z,3.35
2022-08-16T15:07:22.021Z,4.38
2022-08-16T15:10:21.478Z,3.70
2022-08-16T15:13:11.047Z,3.80
2022-08-16T15:16:02.981Z,4.00
2022-08-16T15:18:51.183Z,4.10
2022-08-16T15:21:38.760Z,19.38
2022-08-16T15:24:27.290Z,5.93
2022-08-16T15:27:15.514Z,3.70
2022-08-16T15:30:09.312Z,6.70
2022-08-16T15:33:15.008Z,4.38
2022-08-16T15:36:02.459Z,4.13
2022-08-16T15:39:03.786Z,4.03
2022-08-16T15:42:02.707Z,3.97
2022-08-16T15:44:52.333Z,3.97
2022-08-16T15:47:41.403Z,4.30
2022-08-16T15:50:45.192Z,3.72
2022-08-16T15:53:33.231Z,3.78
2022-08-16T15:56:28.950Z,4.35
2022-08-16T15:59:16.262Z,4.28
2022-08-16T16:02:03.744Z,3.75
2022-08-16T16:04:53.843Z,4.57
2022-08-16T16:07:56.168Z,4.80
2022-08-16T16:16:16.549Z,3.70
2022-08-16T16:19:08.127Z,3.92
2022-08-16T16:21:58.318Z,3.90
2022-08-16T16:24:47.207Z,4.25
2022-08-16T16:27:36.068Z,4.60
2022-08-16T16:31:14.387Z,4.53
2022-08-16T16:34:02.973Z,3.80
2022-08-16T16:36:50.383Z,3.90
2022-08-16T16:39:42.207Z,3.90
2022-08-16T16:42:35.421Z,4.05
2022-08-16T16:45:34.610Z,3.92
2022-08-16T16:48:34.467Z,3.70
2022-08-16T16:51:24.470Z,3.88
2022-08-16T16:54:22.230Z,3.92
2022-08-16T16:57:35.396Z,4.15
2022-08-16T17:00:25.990Z,4.43
2022-08-16T17:13:27.295Z,3.75
2022-08-16T17:16:18.646Z,5.18
2022-08-16T17:24:31.197Z,4.00
2022-08-16T17:27:34.005Z,3.63
2022-08-16T17:30:29.570Z,3.70
2022-08-16T17:33:37.070Z,3.47
2022-08-16T17:41:36.328Z,3.85
2022-08-16T17:44:23.395Z,3.60
2022-08-16T17:47:10.929Z,3.78
2022-08-16T17:49:59.344Z,3.97
2022-08-16T17:58:12.362Z,3.60
2022-08-16T18:01:11.684Z,5.65
2022-08-16T18:04:06.865Z,3.60
2022-08-16T18:06:58.499Z,3.90
2022-08-16T18:09:45.934Z,4.00
2022-08-16T18:12:54.484Z,3.88
2022-08-16T18:15:42.247Z,3.60
2022-08-16T18:18:29.263Z,4.03
2022-08-16T18:21:34.060Z,4.60
2022-08-16T18:24:22.796Z,4.63
2022-08-16T18:27:25.252Z,5.07
2022-08-16T18:30:17.423Z,4.63
2022-08-16T18:33:04.784Z,4.47
2022-08-16T18:35:57.115Z,4.82
2022-08-16T18:38:45.123Z,5.60
2022-08-16T18:41:36.981Z,5.18
2022-08-16T18:44:29.164Z,4.97
2022-08-16T18:47:18.288Z,4.90
2022-08-16T18:50:06.459Z,4.38
2022-08-16T18:52:55.923Z,6.25
2022-08-16T18:55:45.297Z,5.35
2022-08-16T18:58:34.623Z,6.25
2022-08-16T19:17:14.750Z,4.90
2022-08-16T19:20:04.822Z,4.90
2022-08-16T19:23:10.939Z,8.75
2022-08-16T19:26:01.451Z,5.95
2022-08-16T19:28:58.312Z,6.05
2022-08-16T19:31:46.612Z,5.88
2022-08-16T19:34:35.190Z,5.30
2022-08-16T19:37:47.537Z,4.82
2022-08-16T19:40:38.272Z,5.68
2022-08-16T19:43:25.871Z,5.72
2022-08-16T19:46:13.222Z,5.57
2022-08-16T19:49:00.836Z,5.63
2022-08-16T19:51:50.582Z,6.95
2022-08-16T19:54:40.204Z,4.85
2022-08-16T19:57:29.482Z,6.10
2022-08-16T20:00:19.015Z,5.60
2022-08-16T20:03:12.768Z,5.22
2022-08-16T20:06:00.273Z,6.10
2022-08-16T20:08:49.010Z,5.60
2022-08-16T20:11:36.376Z,6.68
2022-08-16T20:14:26.290Z,5.03
2022-08-16T20:17:15.127Z,5.65
2022-08-16T20:20:02.797Z,5.60
2022-08-16T20:22:53.754Z,6.47
2022-08-16T20:25:49.645Z,6.63
2022-08-16T20:28:52.314Z,6.65
2022-08-16T20:31:41.855Z,6.90
2022-08-16T20:34:29.036Z,7.32
2022-08-16T20:37:16.699Z,5.82
2022-08-16T20:40:28.241Z,7.40
2022-08-16T20:43:16.429Z,5.72
2022-08-16T20:46:04.115Z,6.18
2022-08-16T20:48:51.319Z,5.50
2022-08-16T20:51:50.982Z,5.57
2022-08-16T20:54:41.573Z,5.95
2022-08-16T20:57:28.949Z,6.28
2022-08-16T21:00:18.487Z,5.50
2022-08-16T21:03:08.188Z,6.13
2022-08-16T21:05:57.972Z,6.22
2022-08-16T21:08:52.509Z,6.55
2022-08-16T21:17:01.172Z,5.70
2022-08-16T21:19:48.102Z,6.30
2022-08-16T21:22:36.179Z,6.40
2022-08-16T21:25:24.350Z,5.78
2022-08-16T21:28:40.836Z,7.20
2022-08-16T21:31:20.343Z,9.75
2022-08-16T21:34:09.119Z,8.02
2022-08-16T21:36:56.381Z,8.05
2022-08-16T21:39:43.848Z,7.28
2022-08-16T21:42:36.137Z,6.60
2022-08-16T21:50:42.967Z,5.90
2022-08-16T21:53:30.446Z,6.22
2022-08-16T21:56:17.924Z,6.15
2022-08-16T21:59:10.623Z,6.05
2022-08-16T22:03:14.129Z,6.30
2022-08-16T22:06:14.010Z,6.68
2022-08-16T22:09:01.318Z,6.95
2022-08-16T22:11:49.719Z,7.93
2022-08-16T22:14:38.779Z,7.20
2022-08-16T22:22:43.480Z,6.50
2022-08-16T22:25:30.859Z,6.30
2022-08-16T22:28:19.042Z,7.72
2022-08-16T22:31:06.537Z,8.45
2022-08-16T22:39:14.939Z,7.20
2022-08-16T22:42:07.093Z,6.82
2022-08-16T22:44:54.426Z,7.15
2022-08-16T22:47:41.945Z,8.27
2022-08-16T22:50:36.424Z,6.57
2022-08-16T22:53:23.591Z,6.85
2022-08-16T22:56:12.444Z,7.15
2022-08-16T22:59:00.310Z,6.93
2022-08-16T23:01:47.643Z,8.15
2022-08-16T23:04:35.329Z,6.90
2022-08-16T23:07:22.332Z,6.47
2022-08-16T23:10:10.518Z,6.78
2022-08-16T23:13:00.982Z,7.78
2022-08-16T23:21:09.424Z,7.13
2022-08-16T23:24:56.809Z,8.32
2022-08-16T23:28:35.127Z,7.13
2022-08-16T23:31:24.096Z,8.25
2022-08-16T23:34:12.543Z,9.05
2022-08-16T23:36:59.852Z,9.30
2022-08-16T23:41:04.092Z,8.00
2022-08-16T23:43:56.960Z,7.65
2022-08-16T23:46:47.720Z,8.88
2022-08-16T23:49:56.030Z,8.35
2022-08-16T23:52:57.298Z,8.30
2022-08-16T23:55:48.951Z,8.35
2022-08-16T23:58:38.567Z,7.30
